createdAt,value
2019-01-15T00:00:52.174Z,57.70
2019-01-15T00:15:50.540Z,56.30
2019-01-15T00:30:50.905Z,53.89
2019-01-15T00:45:50.778Z,52.49
2019-01-15T01:00:51.855Z,50.29
2019-01-15T01:15:52.703Z,49.41
2019-01-15T01:30:51.129Z,48.91
2019-01-15T01:45:50.979Z,48.49
2019-01-15T02:00:50.948Z,48.17
2019-01-15T02:15:50.818Z,48.69
2019-01-15T02:30:53.284Z,48.81
2019-01-15T02:45:51.162Z,49.86
2019-01-15T03:00:51.142Z,50.26
2019-01-15T03:15:51.026Z,49.88
2019-01-15T03:30:51.758Z,49.43
2019-01-15T03:45:51.269Z,49.45
2019-01-15T04:00:51.265Z,50.00
2019-01-15T04:15:51.169Z,51.04
2019-01-15T04:30:52.542Z,52.45
2019-01-15T04:45:50.462Z,53.25
2019-01-15T05:00:51.380Z,55.29
2019-01-15T05:15:51.303Z,56.82
2019-01-15T05:30:50.792Z,58.53
2019-01-15T05:45:52.696Z,60.34
2019-01-15T06:00:50.615Z,60.90
2019-01-15T06:15:50.501Z,61.31
2019-01-15T06:30:51.023Z,62.64
2019-01-15T06:45:50.832Z,60.85
2019-01-15T07:00:51.773Z,58.99
2019-01-15T07:15:50.269Z,57.65
2019-01-15T07:30:55.352Z,58.69
2019-01-15T07:45:51.067Z,62.91
2019-01-15T08:00:50.959Z,59.65
2019-01-15T08:15:50.440Z,53.01
2019-01-15T08:30:51.230Z,49.14
2019-01-15T08:45:51.081Z,46.76
2019-01-15T09:00:51.055Z,45.03
2019-01-15T09:15:51.047Z,43.68
2019-01-15T09:30:51.339Z,42.42
2019-01-15T09:45:52.200Z,41.68
2019-01-15T10:00:52.665Z,40.97
2019-01-15T10:15:53.069Z,40.04
2019-01-15T10:45:50.489Z,39.20
2019-01-15T11:00:51.352Z,39.29
2019-01-15T11:15:51.250Z,38.61
2019-01-15T11:30:50.635Z,39.06
2019-01-15T11:45:50.525Z,39.63
2019-01-15T12:00:58.606Z,40.53
2019-01-15T12:15:58.373Z,41.45
2019-01-15T13:00:55.851Z,44.80
2019-01-15T13:15:55.517Z,46.03
2019-01-15T13:30:59.477Z,47.21
2019-01-15T13:46:00.743Z,48.04
2019-01-15T14:15:56.278Z,49.69
2019-01-15T15:00:56.061Z,50.78
2019-01-15T15:16:03.493Z,51.92
2019-01-15T15:31:00.183Z,52.16
2019-01-15T16:30:59.867Z,55.28
2019-01-15T17:46:00.211Z,54.77
2019-01-15T18:00:57.228Z,56.15
2019-01-15T18:15:56.519Z,55.95
2019-01-15T18:45:57.806Z,56.72
2019-01-15T19:45:55.552Z,60.87
2019-01-15T20:16:00.704Z,60.82
2019-01-15T20:30:56.107Z,61.32
2019-01-15T21:30:56.900Z,61.03
2019-01-15T22:30:56.671Z,59.87
2019-01-15T22:45:55.959Z,60.10
2019-01-15T23:00:56.805Z,60.72
2019-01-15T23:30:56.610Z,62.47
2019-01-15T23:45:59.301Z,63.14
